sensor_id;sensor_type;location;lat;lon;timestamp;P1;durP1;ratioP1;P2;durP2;ratioP2
56136;SDS011;42008;52.934;5.884;2023-02-21T00:02:18;42.80;;;16.53;;
56136;SDS011;42008;52.934;5.884;2023-02-21T00:05:02;55.00;;;17.00;;
56136;SDS011;42008;52.934;5.884;2023-02-21T00:07:47;51.23;;;17.47;;
56136;SDS011;42008;52.934;5.884;2023-02-21T00:10:31;48.03;;;16.60;;
56136;SDS011;42008;52.934;5.884;2023-02-21T00:13:15;49.57;;;16.90;;
56136;SDS011;42008;52.934;5.884;2023-02-21T00:15:59;45.13;;;16.67;;
56136;SDS011;42008;52.934;5.884;2023-02-21T00:18:43;51.57;;;17.50;;
56136;SDS011;42008;52.934;5.884;2023-02-21T00:21:27;43.67;;;16.30;;
56136;SDS011;42008;52.934;5.884;2023-02-21T00:24:13;44.20;;;16.20;;
56136;SDS011;42008;52.934;5.884;2023-02-21T00:26:59;50.23;;;16.47;;
56136;SDS011;42008;52.934;5.884;2023-02-21T00:29:43;49.00;;;17.53;;
56136;SDS011;42008;52.934;5.884;2023-02-21T00:32:30;48.23;;;17.47;;
56136;SDS011;42008;52.934;5.884;2023-02-21T00:35:14;51.50;;;18.27;;
56136;SDS011;42008;52.934;5.884;2023-02-21T00:37:58;50.40;;;18.30;;
56136;SDS011;42008;52.934;5.884;2023-02-21T00:40:42;46.73;;;19.53;;
56136;SDS011;42008;52.934;5.884;2023-02-21T00:43:27;53.80;;;20.90;;
56136;SDS011;42008;52.934;5.884;2023-02-21T00:46:12;45.73;;;18.70;;
56136;SDS011;42008;52.934;5.884;2023-02-21T00:48:56;50.10;;;18.80;;
56136;SDS011;42008;52.934;5.884;2023-02-21T00:51:40;51.37;;;19.70;;
56136;SDS011;42008;52.934;5.884;2023-02-21T00:54:24;48.03;;;19.17;;
56136;SDS011;42008;52.934;5.884;2023-02-21T00:57:08;46.93;;;18.67;;
56136;SDS011;42008;52.934;5.884;2023-02-21T00:59:53;46.17;;;19.43;;
56136;SDS011;42008;52.934;5.884;2023-02-21T01:02:37;45.70;;;19.87;;
56136;SDS011;42008;52.934;5.884;2023-02-21T01:05:21;46.87;;;18.70;;
56136;SDS011;42008;52.934;5.884;2023-02-21T01:08:05;50.97;;;20.13;;
56136;SDS011;42008;52.934;5.884;2023-02-21T01:10:49;44.83;;;19.70;;
56136;SDS011;42008;52.934;5.884;2023-02-21T01:13:33;46.40;;;19.33;;
56136;SDS011;42008;52.934;5.884;2023-02-21T01:16:17;52.97;;;20.47;;
56136;SDS011;42008;52.934;5.884;2023-02-21T01:19:02;48.70;;;19.93;;
56136;SDS011;42008;52.934;5.884;2023-02-21T01:21:46;48.57;;;19.63;;
56136;SDS011;42008;52.934;5.884;2023-02-21T01:24:30;53.57;;;20.67;;
56136;SDS011;42008;52.934;5.884;2023-02-21T01:27:14;45.07;;;18.47;;
56136;SDS011;42008;52.934;5.884;2023-02-21T01:29:58;42.13;;;19.77;;
56136;SDS011;42008;52.934;5.884;2023-02-21T01:32:42;47.10;;;19.33;;
56136;SDS011;42008;52.934;5.884;2023-02-21T01:35:27;60.27;;;21.50;;
56136;SDS011;42008;52.934;5.884;2023-02-21T01:38:11;48.27;;;19.07;;
56136;SDS011;42008;52.934;5.884;2023-02-21T01:40:55;45.20;;;20.80;;
56136;SDS011;42008;52.934;5.884;2023-02-21T01:43:54;50.50;;;20.50;;
56136;SDS011;42008;52.934;5.884;2023-02-21T01:46:39;57.00;;;20.37;;
56136;SDS011;42008;52.934;5.884;2023-02-21T01:49:24;51.60;;;21.07;;
56136;SDS011;42008;52.934;5.884;2023-02-21T01:52:08;45.47;;;20.50;;
56136;SDS011;42008;52.934;5.884;2023-02-21T01:54:52;52.47;;;20.83;;
56136;SDS011;42008;52.934;5.884;2023-02-21T01:57:38;54.00;;;21.07;;
56136;SDS011;42008;52.934;5.884;2023-02-21T02:00:23;56.07;;;22.30;;
56136;SDS011;42008;52.934;5.884;2023-02-21T02:03:09;57.33;;;21.10;;
56136;SDS011;42008;52.934;5.884;2023-02-21T02:06:08;48.93;;;21.30;;
56136;SDS011;42008;52.934;5.884;2023-02-21T02:08:55;51.87;;;22.03;;
56136;SDS011;42008;52.934;5.884;2023-02-21T02:17:21;49.35;;;21.60;;
56136;SDS011;42008;52.934;5.884;2023-02-21T02:20:22;64.70;;;22.80;;
56136;SDS011;42008;52.934;5.884;2023-02-21T02:22:56;57.13;;;23.53;;
56136;SDS011;42008;52.934;5.884;2023-02-21T02:31:14;56.37;;;24.33;;
56136;SDS011;42008;52.934;5.884;2023-02-21T02:33:54;52.97;;;24.77;;
56136;SDS011;42008;52.934;5.884;2023-02-21T02:36:50;52.10;;;22.83;;
56136;SDS011;42008;52.934;5.884;2023-02-21T02:39:23;55.67;;;23.40;;
56136;SDS011;42008;52.934;5.884;2023-02-21T02:45:07;54.63;;;23.90;;
56136;SDS011;42008;52.934;5.884;2023-02-21T02:47:36;45.67;;;22.97;;
56136;SDS011;42008;52.934;5.884;2023-02-21T02:50:04;55.43;;;24.83;;
56136;SDS011;42008;52.934;5.884;2023-02-21T02:52:33;51.43;;;24.00;;
56136;SDS011;42008;52.934;5.884;2023-02-21T02:55:02;53.33;;;24.33;;
56136;SDS011;42008;52.934;5.884;2023-02-21T02:57:52;48.58;;;23.70;;
56136;SDS011;42008;52.934;5.884;2023-02-21T03:00:18;50.83;;;24.33;;
56136;SDS011;42008;52.934;5.884;2023-02-21T03:11:06;50.13;;;25.20;;
56136;SDS011;42008;52.934;5.884;2023-02-21T03:13:44;56.47;;;25.27;;
56136;SDS011;42008;52.934;5.884;2023-02-21T03:16:17;49.80;;;25.37;;
56136;SDS011;42008;52.934;5.884;2023-02-21T03:21:33;50.63;;;25.27;;
56136;SDS011;42008;52.934;5.884;2023-02-21T03:24:12;49.17;;;25.10;;
56136;SDS011;42008;52.934;5.884;2023-02-21T03:26:40;50.43;;;25.33;;
56136;SDS011;42008;52.934;5.884;2023-02-21T03:29:08;47.00;;;24.27;;
56136;SDS011;42008;52.934;5.884;2023-02-21T03:31:36;49.17;;;26.57;;
56136;SDS011;42008;52.934;5.884;2023-02-21T03:34:07;45.95;;;24.73;;
56136;SDS011;42008;52.934;5.884;2023-02-21T03:36:33;46.73;;;25.73;;
56136;SDS011;42008;52.934;5.884;2023-02-21T03:39:00;47.07;;;25.07;;
56136;SDS011;42008;52.934;5.884;2023-02-21T03:41:25;52.40;;;26.83;;
56136;SDS011;42008;52.934;5.884;2023-02-21T03:43:51;47.80;;;24.50;;
56136;SDS011;42008;52.934;5.884;2023-02-21T03:46:16;51.17;;;26.77;;
56136;SDS011;42008;52.934;5.884;2023-02-21T03:48:42;50.90;;;28.63;;
56136;SDS011;42008;52.934;5.884;2023-02-21T03:51:08;49.77;;;26.57;;
56136;SDS011;42008;52.934;5.884;2023-02-21T03:53:34;56.20;;;27.20;;
56136;SDS011;42008;52.934;5.884;2023-02-21T03:55:59;49.73;;;27.53;;
56136;SDS011;42008;52.934;5.884;2023-02-21T03:58:25;50.83;;;28.10;;
56136;SDS011;42008;52.934;5.884;2023-02-21T04:00:50;49.33;;;28.90;;
56136;SDS011;42008;52.934;5.884;2023-02-21T04:03:17;48.97;;;28.00;;
56136;SDS011;42008;52.934;5.884;2023-02-21T04:05:43;53.33;;;29.43;;
56136;SDS011;42008;52.934;5.884;2023-02-21T04:08:09;58.47;;;28.87;;
56136;SDS011;42008;52.934;5.884;2023-02-21T04:10:34;53.70;;;28.03;;
56136;SDS011;42008;52.934;5.884;2023-02-21T04:13:00;54.20;;;30.70;;
56136;SDS011;42008;52.934;5.884;2023-02-21T04:15:26;54.77;;;28.47;;
56136;SDS011;42008;52.934;5.884;2023-02-21T04:17:51;54.17;;;29.03;;
56136;SDS011;42008;52.934;5.884;2023-02-21T04:20:17;50.87;;;28.90;;
56136;SDS011;42008;52.934;5.884;2023-02-21T04:22:42;53.43;;;29.60;;
56136;SDS011;42008;52.934;5.884;2023-02-21T04:25:08;50.57;;;29.33;;
56136;SDS011;42008;52.934;5.884;2023-02-21T04:27:34;47.50;;;29.50;;
56136;SDS011;42008;52.934;5.884;2023-02-21T04:30:00;56.77;;;29.43;;
56136;SDS011;42008;52.934;5.884;2023-02-21T04:32:26;41.33;;;27.43;;
56136;SDS011;42008;52.934;5.884;2023-02-21T04:34:51;47.57;;;27.90;;
56136;SDS011;42008;52.934;5.884;2023-02-21T04:37:17;48.70;;;29.23;;
56136;SDS011;42008;52.934;5.884;2023-02-21T04:39:43;44.87;;;26.80;;
56136;SDS011;42008;52.934;5.884;2023-02-21T04:42:08;49.70;;;28.17;;
56136;SDS011;42008;52.934;5.884;2023-02-21T04:44:34;52.43;;;28.03;;
56136;SDS011;42008;52.934;5.884;2023-02-21T04:47:00;51.57;;;27.80;;
56136;SDS011;42008;52.934;5.884;2023-02-21T04:49:26;46.07;;;27.83;;
56136;SDS011;42008;52.934;5.884;2023-02-21T04:51:52;47.20;;;28.20;;
56136;SDS011;42008;52.934;5.884;2023-02-21T04:54:18;43.83;;;27.07;;
56136;SDS011;42008;52.934;5.884;2023-02-21T04:56:44;44.17;;;26.17;;
56136;SDS011;42008;52.934;5.884;2023-02-21T04:59:10;49.13;;;27.10;;
56136;SDS011;42008;52.934;5.884;2023-02-21T05:01:35;44.83;;;27.10;;
56136;SDS011;42008;52.934;5.884;2023-02-21T05:04:01;50.57;;;26.33;;
56136;SDS011;42008;52.934;5.884;2023-02-21T05:06:28;40.77;;;25.27;;
56136;SDS011;42008;52.934;5.884;2023-02-21T05:08:54;39.73;;;24.83;;
56136;SDS011;42008;52.934;5.884;2023-02-21T05:11:21;44.00;;;24.43;;
56136;SDS011;42008;52.934;5.884;2023-02-21T05:13:48;46.60;;;26.27;;
56136;SDS011;42008;52.934;5.884;2023-02-21T05:16:14;44.67;;;26.33;;
56136;SDS011;42008;52.934;5.884;2023-02-21T05:18:41;39.50;;;26.83;;
56136;SDS011;42008;52.934;5.884;2023-02-21T05:21:07;43.53;;;26.60;;
56136;SDS011;42008;52.934;5.884;2023-02-21T05:23:33;43.93;;;26.53;;
56136;SDS011;42008;52.934;5.884;2023-02-21T05:26:03;41.17;;;26.30;;
56136;SDS011;42008;52.934;5.884;2023-02-21T05:28:34;42.27;;;26.77;;
56136;SDS011;42008;52.934;5.884;2023-02-21T05:31:00;34.97;;;24.10;;
56136;SDS011;42008;52.934;5.884;2023-02-21T05:33:26;38.47;;;26.00;;
56136;SDS011;42008;52.934;5.884;2023-02-21T05:35:52;40.67;;;25.70;;
56136;SDS011;42008;52.934;5.884;2023-02-21T05:38:18;46.80;;;28.30;;
56136;SDS011;42008;52.934;5.884;2023-02-21T05:40:45;53.97;;;30.07;;
56136;SDS011;42008;52.934;5.884;2023-02-21T05:43:10;51.77;;;29.43;;
56136;SDS011;42008;52.934;5.884;2023-02-21T05:45:36;52.37;;;29.17;;
56136;SDS011;42008;52.934;5.884;2023-02-21T05:48:02;53.43;;;29.83;;
56136;SDS011;42008;52.934;5.884;2023-02-21T05:50:28;58.27;;;31.47;;
56136;SDS011;42008;52.934;5.884;2023-02-21T05:52:54;56.63;;;30.90;;
56136;SDS011;42008;52.934;5.884;2023-02-21T05:55:21;58.97;;;31.83;;
56136;SDS011;42008;52.934;5.884;2023-02-21T05:57:46;60.33;;;33.40;;
56136;SDS011;42008;52.934;5.884;2023-02-21T06:00:14;56.27;;;31.57;;
56136;SDS011;42008;52.934;5.884;2023-02-21T06:02:40;60.17;;;33.23;;
56136;SDS011;42008;52.934;5.884;2023-02-21T06:05:06;59.20;;;33.27;;
56136;SDS011;42008;52.934;5.884;2023-02-21T06:07:31;64.80;;;34.10;;
56136;SDS011;42008;52.934;5.884;2023-02-21T06:09:57;73.97;;;36.37;;
56136;SDS011;42008;52.934;5.884;2023-02-21T06:12:22;58.93;;;33.20;;
56136;SDS011;42008;52.934;5.884;2023-02-21T06:14:48;65.37;;;35.57;;
56136;SDS011;42008;52.934;5.884;2023-02-21T06:17:13;63.30;;;35.17;;
56136;SDS011;42008;52.934;5.884;2023-02-21T06:19:39;62.33;;;35.00;;
56136;SDS011;42008;52.934;5.884;2023-02-21T06:22:05;66.57;;;34.93;;
56136;SDS011;42008;52.934;5.884;2023-02-21T06:24:30;65.13;;;36.00;;
56136;SDS011;42008;52.934;5.884;2023-02-21T06:26:56;65.20;;;36.77;;
56136;SDS011;42008;52.934;5.884;2023-02-21T06:29:21;73.07;;;36.33;;
56136;SDS011;42008;52.934;5.884;2023-02-21T06:31:47;59.07;;;36.57;;
56136;SDS011;42008;52.934;5.884;2023-02-21T06:34:12;68.00;;;36.80;;
56136;SDS011;42008;52.934;5.884;2023-02-21T06:36:38;68.23;;;35.97;;
56136;SDS011;42008;52.934;5.884;2023-02-21T06:39:04;64.43;;;37.80;;
56136;SDS011;42008;52.934;5.884;2023-02-21T06:41:30;70.67;;;36.73;;
56136;SDS011;42008;52.934;5.884;2023-02-21T06:43:56;70.23;;;37.93;;
56136;SDS011;42008;52.934;5.884;2023-02-21T06:46:24;66.07;;;38.03;;
56136;SDS011;42008;52.934;5.884;2023-02-21T06:48:51;64.77;;;35.80;;
56136;SDS011;42008;52.934;5.884;2023-02-21T06:51:17;59.87;;;34.60;;
56136;SDS011;42008;52.934;5.884;2023-02-21T06:53:44;58.77;;;36.90;;
56136;SDS011;42008;52.934;5.884;2023-02-21T06:56:14;68.13;;;35.67;;
56136;SDS011;42008;52.934;5.884;2023-02-21T06:58:40;58.53;;;35.90;;
56136;SDS011;42008;52.934;5.884;2023-02-21T07:01:05;58.20;;;34.80;;
56136;SDS011;42008;52.934;5.884;2023-02-21T07:03:31;62.47;;;35.60;;
56136;SDS011;42008;52.934;5.884;2023-02-21T07:05:56;56.57;;;34.17;;
56136;SDS011;42008;52.934;5.884;2023-02-21T07:08:22;58.50;;;34.77;;
56136;SDS011;42008;52.934;5.884;2023-02-21T07:10:49;56.07;;;33.37;;
56136;SDS011;42008;52.934;5.884;2023-02-21T07:13:15;54.90;;;33.07;;
56136;SDS011;42008;52.934;5.884;2023-02-21T07:15:41;52.20;;;32.73;;
56136;SDS011;42008;52.934;5.884;2023-02-21T07:18:06;56.73;;;34.33;;
56136;SDS011;42008;52.934;5.884;2023-02-21T07:20:32;54.63;;;34.20;;
56136;SDS011;42008;52.934;5.884;2023-02-21T07:22:59;59.17;;;34.13;;
56136;SDS011;42008;52.934;5.884;2023-02-21T07:25:24;60.40;;;33.83;;
56136;SDS011;42008;52.934;5.884;2023-02-21T07:27:50;58.30;;;33.73;;
56136;SDS011;42008;52.934;5.884;2023-02-21T07:30:17;54.03;;;33.77;;
56136;SDS011;42008;52.934;5.884;2023-02-21T07:32:43;56.70;;;34.10;;
56136;SDS011;42008;52.934;5.884;2023-02-21T07:35:09;57.07;;;34.57;;
56136;SDS011;42008;52.934;5.884;2023-02-21T07:37:35;66.37;;;35.40;;
56136;SDS011;42008;52.934;5.884;2023-02-21T07:40:00;65.10;;;34.37;;
56136;SDS011;42008;52.934;5.884;2023-02-21T07:42:26;66.13;;;35.47;;
56136;SDS011;42008;52.934;5.884;2023-02-21T07:44:55;56.10;;;34.07;;
56136;SDS011;42008;52.934;5.884;2023-02-21T07:47:22;64.37;;;35.50;;
56136;SDS011;42008;52.934;5.884;2023-02-21T07:49:48;62.17;;;35.63;;
56136;SDS011;42008;52.934;5.884;2023-02-21T07:52:14;66.03;;;35.97;;
56136;SDS011;42008;52.934;5.884;2023-02-21T07:54:40;67.93;;;37.10;;
56136;SDS011;42008;52.934;5.884;2023-02-21T07:57:05;68.17;;;36.87;;
56136;SDS011;42008;52.934;5.884;2023-02-21T07:59:31;67.70;;;37.73;;
56136;SDS011;42008;52.934;5.884;2023-02-21T08:01:57;70.93;;;36.80;;
56136;SDS011;42008;52.934;5.884;2023-02-21T08:04:22;67.70;;;35.77;;
56136;SDS011;42008;52.934;5.884;2023-02-21T08:06:48;73.47;;;38.53;;
56136;SDS011;42008;52.934;5.884;2023-02-21T08:09:14;66.23;;;37.03;;
56136;SDS011;42008;52.934;5.884;2023-02-21T08:11:40;63.63;;;35.70;;
56136;SDS011;42008;52.934;5.884;2023-02-21T08:14:05;72.10;;;36.93;;
56136;SDS011;42008;52.934;5.884;2023-02-21T08:16:31;70.73;;;36.97;;
56136;SDS011;42008;52.934;5.884;2023-02-21T08:18:57;63.77;;;37.20;;
56136;SDS011;42008;52.934;5.884;2023-02-21T08:21:22;68.17;;;37.33;;
56136;SDS011;42008;52.934;5.884;2023-02-21T08:23:50;68.83;;;37.57;;
56136;SDS011;42008;52.934;5.884;2023-02-21T08:26:18;60.43;;;36.67;;
56136;SDS011;42008;52.934;5.884;2023-02-21T08:28:44;66.73;;;37.93;;
56136;SDS011;42008;52.934;5.884;2023-02-21T08:31:09;63.30;;;36.53;;
56136;SDS011;42008;52.934;5.884;2023-02-21T08:33:35;63.27;;;36.50;;
56136;SDS011;42008;52.934;5.884;2023-02-21T08:36:00;61.70;;;34.87;;
56136;SDS011;42008;52.934;5.884;2023-02-21T08:38:26;61.80;;;34.53;;
56136;SDS011;42008;52.934;5.884;2023-02-21T08:40:51;56.90;;;33.10;;
56136;SDS011;42008;52.934;5.884;2023-02-21T08:43:17;60.43;;;34.53;;
56136;SDS011;42008;52.934;5.884;2023-02-21T08:45:43;60.27;;;34.73;;
56136;SDS011;42008;52.934;5.884;2023-02-21T08:48:08;59.80;;;35.20;;
56136;SDS011;42008;52.934;5.884;2023-02-21T08:50:34;53.47;;;33.73;;
56136;SDS011;42008;52.934;5.884;2023-02-21T08:52:59;58.03;;;32.63;;
56136;SDS011;42008;52.934;5.884;2023-02-21T08:55:25;54.30;;;35.07;;
56136;SDS011;42008;52.934;5.884;2023-02-21T08:57:51;59.80;;;34.50;;
56136;SDS011;42008;52.934;5.884;2023-02-21T09:00:18;53.40;;;33.90;;
56136;SDS011;42008;52.934;5.884;2023-02-21T09:02:47;55.73;;;33.43;;
56136;SDS011;42008;52.934;5.884;2023-02-21T09:05:15;50.23;;;32.20;;
56136;SDS011;42008;52.934;5.884;2023-02-21T09:07:43;51.17;;;32.37;;
56136;SDS011;42008;52.934;5.884;2023-02-21T09:10:12;48.50;;;31.83;;
56136;SDS011;42008;52.934;5.884;2023-02-21T09:12:38;52.47;;;32.27;;
56136;SDS011;42008;52.934;5.884;2023-02-21T09:15:04;60.47;;;34.30;;
56136;SDS011;42008;52.934;5.884;2023-02-21T09:17:30;58.43;;;34.43;;
56136;SDS011;42008;52.934;5.884;2023-02-21T09:19:58;55.10;;;35.03;;
56136;SDS011;42008;52.934;5.884;2023-02-21T09:22:25;52.07;;;34.07;;
56136;SDS011;42008;52.934;5.884;2023-02-21T09:24:50;58.77;;;32.77;;
56136;SDS011;42008;52.934;5.884;2023-02-21T09:27:16;51.30;;;32.20;;
56136;SDS011;42008;52.934;5.884;2023-02-21T09:29:42;49.80;;;31.43;;
56136;SDS011;42008;52.934;5.884;2023-02-21T09:32:07;46.40;;;31.53;;
56136;SDS011;42008;52.934;5.884;2023-02-21T09:34:34;41.73;;;30.33;;
56136;SDS011;42008;52.934;5.884;2023-02-21T09:37:03;47.77;;;30.70;;
56136;SDS011;42008;52.934;5.884;2023-02-21T09:39:29;44.10;;;30.43;;
56136;SDS011;42008;52.934;5.884;2023-02-21T09:41:55;44.90;;;31.33;;
56136;SDS011;42008;52.934;5.884;2023-02-21T09:44:25;43.10;;;30.90;;
56136;SDS011;42008;52.934;5.884;2023-02-21T09:46:59;39.60;;;27.50;;
56136;SDS011;42008;52.934;5.884;2023-02-21T09:49:36;37.97;;;27.70;;
56136;SDS011;42008;52.934;5.884;2023-02-21T09:52:06;37.00;;;28.17;;
56136;SDS011;42008;52.934;5.884;2023-02-21T09:54:53;37.90;;;26.30;;
56136;SDS011;42008;52.934;5.884;2023-02-21T09:57:22;36.63;;;26.60;;
56136;SDS011;42008;52.934;5.884;2023-02-21T09:59:48;34.77;;;25.97;;
56136;SDS011;42008;52.934;5.884;2023-02-21T10:05:03;34.23;;;24.90;;
56136;SDS011;42008;52.934;5.884;2023-02-21T10:07:59;34.93;;;26.03;;
56136;SDS011;42008;52.934;5.884;2023-02-21T10:15:56;32.97;;;25.23;;
56136;SDS011;42008;52.934;5.884;2023-02-21T10:21:46;32.42;;;23.30;;
56136;SDS011;42008;52.934;5.884;2023-02-21T10:24:18;37.57;;;25.37;;
56136;SDS011;42008;52.934;5.884;2023-02-21T10:26:47;30.97;;;23.77;;
56136;SDS011;42008;52.934;5.884;2023-02-21T10:29:22;31.20;;;24.27;;
56136;SDS011;42008;52.934;5.884;2023-02-21T10:31:54;33.93;;;23.93;;
56136;SDS011;42008;52.934;5.884;2023-02-21T10:34:27;32.10;;;23.87;;
56136;SDS011;42008;52.934;5.884;2023-02-21T10:36:53;45.47;;;30.10;;
56136;SDS011;42008;52.934;5.884;2023-02-21T10:39:23;46.03;;;29.77;;
56136;SDS011;42008;52.934;5.884;2023-02-21T10:41:56;46.57;;;30.07;;
56136;SDS011;42008;52.934;5.884;2023-02-21T10:44:29;44.87;;;30.27;;
56136;SDS011;42008;52.934;5.884;2023-02-21T10:47:00;38.67;;;27.93;;
56136;SDS011;42008;52.934;5.884;2023-02-21T10:49:39;41.90;;;29.57;;
56136;SDS011;42008;52.934;5.884;2023-02-21T10:52:11;32.73;;;24.43;;
56136;SDS011;42008;52.934;5.884;2023-02-21T10:54:40;32.33;;;25.70;;
56136;SDS011;42008;52.934;5.884;2023-02-21T10:57:23;47.35;;;30.63;;
56136;SDS011;42008;52.934;5.884;2023-02-21T10:59:49;38.90;;;26.63;;
56136;SDS011;42008;52.934;5.884;2023-02-21T11:02:25;40.87;;;29.00;;
56136;SDS011;42008;52.934;5.884;2023-02-21T11:04:53;43.30;;;30.57;;
56136;SDS011;42008;52.934;5.884;2023-02-21T11:07:19;46.80;;;29.93;;
56136;SDS011;42008;52.934;5.884;2023-02-21T11:09:47;49.87;;;29.47;;
56136;SDS011;42008;52.934;5.884;2023-02-21T11:15:13;48.40;;;32.33;;
56136;SDS011;42008;52.934;5.884;2023-02-21T11:17:39;43.43;;;30.60;;
56136;SDS011;42008;52.934;5.884;2023-02-21T11:22:42;42.35;;;30.70;;
56136;SDS011;42008;52.934;5.884;2023-02-21T11:27:44;48.27;;;31.57;;
56136;SDS011;42008;52.934;5.884;2023-02-21T11:30:21;48.60;;;31.10;;
56136;SDS011;42008;52.934;5.884;2023-02-21T11:32:51;48.07;;;33.73;;
56136;SDS011;42008;52.934;5.884;2023-02-21T11:35:25;50.47;;;33.77;;
56136;SDS011;42008;52.934;5.884;2023-02-21T11:37:53;49.17;;;33.30;;
56136;SDS011;42008;52.934;5.884;2023-02-21T11:43:08;49.40;;;33.60;;
56136;SDS011;42008;52.934;5.884;2023-02-21T11:46:01;51.80;;;35.17;;
56136;SDS011;42008;52.934;5.884;2023-02-21T11:49:22;51.40;;;33.73;;
56136;SDS011;42008;52.934;5.884;2023-02-21T11:54:23;54.17;;;34.67;;
56136;SDS011;42008;52.934;5.884;2023-02-21T11:56:58;51.50;;;34.63;;
56136;SDS011;42008;52.934;5.884;2023-02-21T12:08:09;56.90;;;34.77;;
56136;SDS011;42008;52.934;5.884;2023-02-21T12:10:50;56.73;;;35.27;;
56136;SDS011;42008;52.934;5.884;2023-02-21T12:19:16;58.47;;;36.50;;
56136;SDS011;42008;52.934;5.884;2023-02-21T12:22:01;57.37;;;36.57;;
56136;SDS011;42008;52.934;5.884;2023-02-21T12:27:33;56.40;;;35.37;;
56136;SDS011;42008;52.934;5.884;2023-02-21T12:30:30;57.87;;;35.10;;
56136;SDS011;42008;52.934;5.884;2023-02-21T12:35:44;59.53;;;36.87;;
56136;SDS011;42008;52.934;5.884;2023-02-21T12:44:17;67.90;;;38.57;;
56136;SDS011;42008;52.934;5.884;2023-02-21T12:50:11;57.50;;;36.10;;
56136;SDS011;42008;52.934;5.884;2023-02-21T12:52:32;58.70;;;35.87;;
56136;SDS011;42008;52.934;5.884;2023-02-21T12:55:11;59.97;;;35.70;;
56136;SDS011;42008;52.934;5.884;2023-02-21T13:00:31;61.50;;;36.53;;
56136;SDS011;42008;52.934;5.884;2023-02-21T13:05:47;61.37;;;37.37;;
56136;SDS011;42008;52.934;5.884;2023-02-21T13:08:22;62.87;;;38.47;;
56136;SDS011;42008;52.934;5.884;2023-02-21T13:10:51;59.40;;;37.50;;
56136;SDS011;42008;52.934;5.884;2023-02-21T13:13:38;67.37;;;39.00;;
56136;SDS011;42008;52.934;5.884;2023-02-21T13:16:05;64.30;;;38.60;;
56136;SDS011;42008;52.934;5.884;2023-02-21T13:18:47;61.43;;;38.80;;
56136;SDS011;42008;52.934;5.884;2023-02-21T13:24:11;75.73;;;41.20;;
56136;SDS011;42008;52.934;5.884;2023-02-21T13:29:30;69.60;;;40.70;;
56136;SDS011;42008;52.934;5.884;2023-02-21T13:32:01;67.23;;;39.47;;
56136;SDS011;42008;52.934;5.884;2023-02-21T13:35:18;67.90;;;39.77;;
56136;SDS011;42008;52.934;5.884;2023-02-21T13:37:26;67.90;;;38.05;;
56136;SDS011;42008;52.934;5.884;2023-02-21T13:40:00;67.37;;;40.63;;
56136;SDS011;42008;52.934;5.884;2023-02-21T13:42:32;73.73;;;43.47;;
56136;SDS011;42008;52.934;5.884;2023-02-21T13:45:21;72.47;;;42.13;;
56136;SDS011;42008;52.934;5.884;2023-02-21T13:53:08;62.10;;;38.73;;
56136;SDS011;42008;52.934;5.884;2023-02-21T13:56:10;64.17;;;39.00;;
56136;SDS011;42008;52.934;5.884;2023-02-21T13:58:43;65.40;;;40.13;;
56136;SDS011;42008;52.934;5.884;2023-02-21T14:01:20;61.37;;;37.27;;
56136;SDS011;42008;52.934;5.884;2023-02-21T14:03:52;56.75;;;35.60;;
56136;SDS011;42008;52.934;5.884;2023-02-21T14:08:59;46.40;;;31.87;;
56136;SDS011;42008;52.934;5.884;2023-02-21T14:11:38;46.13;;;31.80;;
56136;SDS011;42008;52.934;5.884;2023-02-21T14:14:19;47.03;;;31.53;;
56136;SDS011;42008;52.934;5.884;2023-02-21T14:17:04;47.17;;;31.10;;
56136;SDS011;42008;52.934;5.884;2023-02-21T14:19:42;51.00;;;31.10;;
56136;SDS011;42008;52.934;5.884;2023-02-21T14:22:16;47.30;;;29.80;;
56136;SDS011;42008;52.934;5.884;2023-02-21T14:24:49;48.80;;;31.50;;
56136;SDS011;42008;52.934;5.884;2023-02-21T14:37:50;39.17;;;28.60;;
56136;SDS011;42008;52.934;5.884;2023-02-21T14:40:25;41.93;;;28.00;;
56136;SDS011;42008;52.934;5.884;2023-02-21T14:59:29;51.50;;;32.87;;
56136;SDS011;42008;52.934;5.884;2023-02-21T15:15:17;52.40;;;33.73;;
56136;SDS011;42008;52.934;5.884;2023-02-21T15:20:23;54.80;;;34.93;;
56136;SDS011;42008;52.934;5.884;2023-02-21T15:25:35;55.10;;;34.67;;
56136;SDS011;42008;52.934;5.884;2023-02-21T15:28:02;55.63;;;35.17;;
56136;SDS011;42008;52.934;5.884;2023-02-21T15:30:34;59.97;;;37.97;;
56136;SDS011;42008;52.934;5.884;2023-02-21T15:35:44;71.40;;;40.30;;
56136;SDS011;42008;52.934;5.884;2023-02-21T15:38:25;71.60;;;41.50;;
56136;SDS011;42008;52.934;5.884;2023-02-21T15:40:55;73.97;;;41.17;;
56136;SDS011;42008;52.934;5.884;2023-02-21T15:43:35;74.37;;;41.93;;
56136;SDS011;42008;52.934;5.884;2023-02-21T15:46:07;85.07;;;45.37;;
56136;SDS011;42008;52.934;5.884;2023-02-21T15:48:36;92.87;;;45.47;;
56136;SDS011;42008;52.934;5.884;2023-02-21T15:51:03;89.03;;;46.13;;
56136;SDS011;42008;52.934;5.884;2023-02-21T15:53:31;87.70;;;45.00;;
56136;SDS011;42008;52.934;5.884;2023-02-21T15:56:13;99.03;;;47.27;;
56136;SDS011;42008;52.934;5.884;2023-02-21T16:01:31;105.83;;;48.97;;
56136;SDS011;42008;52.934;5.884;2023-02-21T16:04:19;103.10;;;49.37;;
56136;SDS011;42008;52.934;5.884;2023-02-21T16:06:46;98.67;;;47.70;;
56136;SDS011;42008;52.934;5.884;2023-02-21T16:09:19;112.73;;;50.83;;
56136;SDS011;42008;52.934;5.884;2023-02-21T16:11:59;109.50;;;50.63;;
56136;SDS011;42008;52.934;5.884;2023-02-21T16:17:15;111.03;;;48.97;;
56136;SDS011;42008;52.934;5.884;2023-02-21T16:19:53;113.00;;;50.47;;
56136;SDS011;42008;52.934;5.884;2023-02-21T16:22:23;139.23;;;53.47;;
56136;SDS011;42008;52.934;5.884;2023-02-21T16:27:49;125.87;;;54.13;;
56136;SDS011;42008;52.934;5.884;2023-02-21T16:30:24;150.80;;;55.03;;
56136;SDS011;42008;52.934;5.884;2023-02-21T16:32:52;147.30;;;56.87;;
56136;SDS011;42008;52.934;5.884;2023-02-21T16:35:23;131.93;;;53.17;;
56136;SDS011;42008;52.934;5.884;2023-02-21T16:37:51;139.67;;;53.27;;
56136;SDS011;42008;52.934;5.884;2023-02-21T16:40:23;158.77;;;56.63;;
56136;SDS011;42008;52.934;5.884;2023-02-21T16:42:51;144.00;;;56.67;;
56136;SDS011;42008;52.934;5.884;2023-02-21T16:45:18;133.67;;;55.70;;
56136;SDS011;42008;52.934;5.884;2023-02-21T16:47:43;148.37;;;56.77;;
56136;SDS011;42008;52.934;5.884;2023-02-21T16:50:20;148.63;;;56.57;;
56136;SDS011;42008;52.934;5.884;2023-02-21T16:52:51;160.30;;;56.40;;
56136;SDS011;42008;52.934;5.884;2023-02-21T16:55:17;167.63;;;58.57;;
56136;SDS011;42008;52.934;5.884;2023-02-21T16:57:49;160.73;;;55.17;;
56136;SDS011;42008;52.934;5.884;2023-02-21T17:00:18;163.77;;;56.53;;
56136;SDS011;42008;52.934;5.884;2023-02-21T17:02:45;150.67;;;56.73;;
56136;SDS011;42008;52.934;5.884;2023-02-21T17:05:15;161.90;;;56.40;;
56136;SDS011;42008;52.934;5.884;2023-02-21T17:07:41;159.23;;;55.30;;
56136;SDS011;42008;52.934;5.884;2023-02-21T17:10:06;148.80;;;52.43;;
56136;SDS011;42008;52.934;5.884;2023-02-21T17:12:32;155.43;;;53.63;;
56136;SDS011;42008;52.934;5.884;2023-02-21T17:14:58;186.57;;;57.20;;
56136;SDS011;42008;52.934;5.884;2023-02-21T17:17:23;166.33;;;54.10;;
56136;SDS011;42008;52.934;5.884;2023-02-21T17:19:49;151.70;;;53.37;;
56136;SDS011;42008;52.934;5.884;2023-02-21T17:22:14;166.60;;;53.67;;
56136;SDS011;42008;52.934;5.884;2023-02-21T17:24:40;169.60;;;53.90;;